sensor_id;sensor_type;location;lat;lon;timestamp;pressure;altitude;pressure_sealevel;temperature;humidity
9521;BME280;4798;41.574;23.734;2023-11-22T00:01:27;94838.69;;;11.53;92.64
9521;BME280;4798;41.574;23.734;2023-11-22T00:03:57;94844.19;;;11.56;92.18
9521;BME280;4798;41.574;23.734;2023-11-22T00:06:26;94837.59;;;11.54;92.52
9521;BME280;4798;41.574;23.734;2023-11-22T00:08:54;94828.34;;;11.51;93.02
9521;BME280;4798;41.574;23.734;2023-11-22T00:11:23;94841.34;;;11.53;93.59
9521;BME280;4798;41.574;23.734;2023-11-22T00:13:53;94841.28;;;11.58;92.91
9521;BME280;4798;41.574;23.734;2023-11-22T00:16:24;94835.47;;;11.56;94.00
9521;BME280;4798;41.574;23.734;2023-11-22T00:18:53;94830.16;;;11.56;93.10
9521;BME280;4798;41.574;23.734;2023-11-22T00:21:21;94834.66;;;11.55;92.95
9521;BME280;4798;41.574;23.734;2023-11-22T00:23:49;94840.13;;;11.64;92.37
9521;BME280;4798;41.574;23.734;2023-11-22T00:26:18;94847.16;;;11.12;99.32
9521;BME280;4798;41.574;23.734;2023-11-22T00:28:46;94851.38;;;11.13;100.00
9521;BME280;4798;41.574;23.734;2023-11-22T00:31:17;94838.53;;;11.02;100.00
9521;BME280;4798;41.574;23.734;2023-11-22T00:33:46;94826.75;;;11.31;98.97
9521;BME280;4798;41.574;23.734;2023-11-22T00:36:14;94829.63;;;11.35;97.61
9521;BME280;4798;41.574;23.734;2023-11-22T00:38:43;94828.84;;;11.34;96.66
9521;BME280;4798;41.574;23.734;2023-11-22T00:41:12;94813.97;;;11.33;97.20
9521;BME280;4798;41.574;23.734;2023-11-22T00:43:41;94823.41;;;11.44;94.73
9521;BME280;4798;41.574;23.734;2023-11-22T00:46:10;94821.69;;;11.35;97.00
9521;BME280;4798;41.574;23.734;2023-11-22T00:48:39;94819.72;;;11.22;98.01
9521;BME280;4798;41.574;23.734;2023-11-22T00:51:08;94811.03;;;11.16;98.10
9521;BME280;4798;41.574;23.734;2023-11-22T00:53:38;94818.78;;;10.89;100.00
9521;BME280;4798;41.574;23.734;2023-11-22T00:56:06;94822.06;;;10.81;100.00
9521;BME280;4798;41.574;23.734;2023-11-22T00:58:35;94814.91;;;10.81;100.00
9521;BME280;4798;41.574;23.734;2023-11-22T01:01:04;94818.06;;;11.07;100.00
9521;BME280;4798;41.574;23.734;2023-11-22T01:03:32;94810.22;;;11.16;99.91
9521;BME280;4798;41.574;23.734;2023-11-22T01:06:02;94813.63;;;11.21;99.06
9521;BME280;4798;41.574;23.734;2023-11-22T01:08:33;94812.31;;;11.19;98.67
9521;BME280;4798;41.574;23.734;2023-11-22T01:11:04;94801.50;;;11.15;99.45
9521;BME280;4798;41.574;23.734;2023-11-22T01:13:32;94801.56;;;11.10;97.85
9521;BME280;4798;41.574;23.734;2023-11-22T01:16:07;94709.38;;;10.41;98.91
9521;BME280;4798;41.574;23.734;2023-11-22T01:18:36;94799.06;;;11.00;99.71
9521;BME280;4798;41.574;23.734;2023-11-22T01:21:07;94792.09;;;11.04;99.55
9521;BME280;4798;41.574;23.734;2023-11-22T01:23:36;94793.88;;;11.09;98.75
9521;BME280;4798;41.574;23.734;2023-11-22T01:26:04;94787.72;;;10.71;100.00
9521;BME280;4798;41.574;23.734;2023-11-22T01:28:33;94790.91;;;10.92;100.00
9521;BME280;4798;41.574;23.734;2023-11-22T01:31:02;94783.56;;;11.07;100.00
9521;BME280;4798;41.574;23.734;2023-11-22T01:33:30;94778.72;;;10.91;100.00
9521;BME280;4798;41.574;23.734;2023-11-22T01:36:01;94779.25;;;10.69;100.00
9521;BME280;4798;41.574;23.734;2023-11-22T01:38:31;94783.19;;;10.48;100.00
9521;BME280;4798;41.574;23.734;2023-11-22T01:41:00;94778.03;;;10.61;100.00
9521;BME280;4798;41.574;23.734;2023-11-22T01:43:28;94778.03;;;10.85;100.00
9521;BME280;4798;41.574;23.734;2023-11-22T01:45:58;94781.25;;;11.01;100.00
9521;BME280;4798;41.574;23.734;2023-11-22T01:48:27;94774.03;;;11.06;100.00
9521;BME280;4798;41.574;23.734;2023-11-22T01:50:57;94780.34;;;11.10;100.00
9521;BME280;4798;41.574;23.734;2023-11-22T01:53:25;94785.44;;;11.07;100.00
9521;BME280;4798;41.574;23.734;2023-11-22T01:55:56;94780.84;;;11.12;100.00
9521;BME280;4798;41.574;23.734;2023-11-22T01:58:24;94771.03;;;11.13;100.00
9521;BME280;4798;41.574;23.734;2023-11-22T02:00:54;94784.50;;;11.16;100.00
9521;BME280;4798;41.574;23.734;2023-11-22T02:03:22;94761.56;;;11.07;100.00
9521;BME280;4798;41.574;23.734;2023-11-22T02:05:51;94778.22;;;11.12;100.00
9521;BME280;4798;41.574;23.734;2023-11-22T02:08:21;94788.66;;;11.04;100.00
9521;BME280;4798;41.574;23.734;2023-11-22T02:10:58;94795.03;;;11.03;100.00
9521;BME280;4798;41.574;23.734;2023-11-22T02:13:29;94796.69;;;11.17;100.00
9521;BME280;4798;41.574;23.734;2023-11-22T02:15:57;94762.13;;;11.04;100.00
9521;BME280;4798;41.574;23.734;2023-11-22T02:18:28;94791.09;;;11.00;100.00
9521;BME280;4798;41.574;23.734;2023-11-22T02:20:57;94811.63;;;10.42;100.00
9521;BME280;4798;41.574;23.734;2023-11-22T02:23:27;94804.28;;;10.34;100.00
9521;BME280;4798;41.574;23.734;2023-11-22T02:25:56;94796.47;;;10.19;100.00
9521;BME280;4798;41.574;23.734;2023-11-22T02:28:26;94798.94;;;9.72;100.00
9521;BME280;4798;41.574;23.734;2023-11-22T02:30:54;94804.50;;;9.70;100.00
9521;BME280;4798;41.574;23.734;2023-11-22T02:33:22;94786.13;;;10.17;100.00
9521;BME280;4798;41.574;23.734;2023-11-22T02:35:52;94773.66;;;9.89;100.00
9521;BME280;4798;41.574;23.734;2023-11-22T02:38:21;94759.34;;;9.90;100.00
9521;BME280;4798;41.574;23.734;2023-11-22T02:40:51;94764.56;;;10.00;100.00
9521;BME280;4798;41.574;23.734;2023-11-22T02:43:20;94777.09;;;10.24;100.00
9521;BME280;4798;41.574;23.734;2023-11-22T02:45:50;94790.94;;;10.10;100.00
9521;BME280;4798;41.574;23.734;2023-11-22T02:48:19;94804.78;;;10.02;100.00
9521;BME280;4798;41.574;23.734;2023-11-22T02:50:47;94796.78;;;10.12;100.00
9521;BME280;4798;41.574;23.734;2023-11-22T02:53:16;94787.94;;;10.51;100.00
9521;BME280;4798;41.574;23.734;2023-11-22T02:55:45;94797.19;;;10.53;100.00
9521;BME280;4798;41.574;23.734;2023-11-22T02:58:14;94807.50;;;10.55;100.00
9521;BME280;4798;41.574;23.734;2023-11-22T03:00:44;94807.31;;;10.46;100.00
9521;BME280;4798;41.574;23.734;2023-11-22T03:03:12;94805.56;;;10.60;100.00
9521;BME280;4798;41.574;23.734;2023-11-22T03:05:41;94808.22;;;10.60;100.00
9521;BME280;4798;41.574;23.734;2023-11-22T03:08:10;94810.72;;;10.75;100.00
9521;BME280;4798;41.574;23.734;2023-11-22T03:10:40;94806.59;;;10.88;100.00
9521;BME280;4798;41.574;23.734;2023-11-22T03:13:08;94800.84;;;10.81;100.00
9521;BME280;4798;41.574;23.734;2023-11-22T03:15:38;94805.03;;;10.87;100.00
9521;BME280;4798;41.574;23.734;2023-11-22T03:18:07;94810.53;;;10.91;100.00
9521;BME280;4798;41.574;23.734;2023-11-22T03:20:35;94806.59;;;10.88;100.00
9521;BME280;4798;41.574;23.734;2023-11-22T03:23:04;94775.44;;;10.80;100.00
9521;BME280;4798;41.574;23.734;2023-11-22T03:25:33;94791.84;;;10.82;100.00
9521;BME280;4798;41.574;23.734;2023-11-22T03:28:01;94788.09;;;10.83;100.00
9521;BME280;4798;41.574;23.734;2023-11-22T03:30:30;94799.16;;;10.90;100.00
9521;BME280;4798;41.574;23.734;2023-11-22T03:33:00;94809.19;;;10.93;100.00
9521;BME280;4798;41.574;23.734;2023-11-22T03:35:28;94804.19;;;10.92;100.00
9521;BME280;4798;41.574;23.734;2023-11-22T03:37:58;94796.06;;;10.59;100.00
9521;BME280;4798;41.574;23.734;2023-11-22T03:40:27;94803.44;;;10.39;100.00
9521;BME280;4798;41.574;23.734;2023-11-22T03:42:55;94788.97;;;10.55;100.00
9521;BME280;4798;41.574;23.734;2023-11-22T03:45:23;94788.16;;;10.54;100.00
9521;BME280;4798;41.574;23.734;2023-11-22T03:47:52;94806.97;;;10.53;100.00
9521;BME280;4798;41.574;23.734;2023-11-22T03:50:22;94801.56;;;10.63;100.00
9521;BME280;4798;41.574;23.734;2023-11-22T03:52:50;94812.47;;;10.33;100.00
9521;BME280;4798;41.574;23.734;2023-11-22T03:55:19;94814.66;;;10.26;100.00
9521;BME280;4798;41.574;23.734;2023-11-22T03:57:47;94817.19;;;10.41;100.00
9521;BME280;4798;41.574;23.734;2023-11-22T04:00:16;94821.53;;;10.55;100.00
9521;BME280;4798;41.574;23.734;2023-11-22T04:02:46;94828.97;;;10.53;100.00
9521;BME280;4798;41.574;23.734;2023-11-22T04:05:15;94831.56;;;10.35;100.00
9521;BME280;4798;41.574;23.734;2023-11-22T04:07:45;94835.31;;;10.57;100.00
9521;BME280;4798;41.574;23.734;2023-11-22T04:10:13;94823.91;;;10.57;100.00
9521;BME280;4798;41.574;23.734;2023-11-22T04:12:42;94824.97;;;10.32;100.00
9521;BME280;4798;41.574;23.734;2023-11-22T04:15:10;94826.25;;;10.35;100.00
9521;BME280;4798;41.574;23.734;2023-11-22T04:17:39;94829.44;;;10.60;100.00
9521;BME280;4798;41.574;23.734;2023-11-22T04:20:09;94828.59;;;10.65;100.00
9521;BME280;4798;41.574;23.734;2023-11-22T04:22:40;94831.63;;;10.53;100.00
9521;BME280;4798;41.574;23.734;2023-11-22T04:25:10;94841.63;;;10.33;100.00
9521;BME280;4798;41.574;23.734;2023-11-22T04:27:40;94755.91;;;9.90;100.00
9521;BME280;4798;41.574;23.734;2023-11-22T04:30:09;94841.97;;;10.55;100.00
9521;BME280;4798;41.574;23.734;2023-11-22T04:32:40;94836.97;;;10.19;100.00
9521;BME280;4798;41.574;23.734;2023-11-22T04:35:10;94846.41;;;10.31;100.00
9521;BME280;4798;41.574;23.734;2023-11-22T04:37:38;94836.75;;;10.11;100.00
9521;BME280;4798;41.574;23.734;2023-11-22T04:40:07;94835.75;;;10.02;100.00
9521;BME280;4798;41.574;23.734;2023-11-22T04:42:40;94835.34;;;9.85;100.00
9521;BME280;4798;41.574;23.734;2023-11-22T04:45:09;94835.97;;;10.10;100.00
9521;BME280;4798;41.574;23.734;2023-11-22T04:47:37;94836.03;;;10.00;100.00
9521;BME280;4798;41.574;23.734;2023-11-22T04:50:07;94849.25;;;10.05;100.00
9521;BME280;4798;41.574;23.734;2023-11-22T04:52:36;94846.81;;;10.14;100.00
9521;BME280;4798;41.574;23.734;2023-11-22T04:55:05;94841.50;;;10.19;100.00
9521;BME280;4798;41.574;23.734;2023-11-22T04:57:33;94832.75;;;10.18;100.00
9521;BME280;4798;41.574;23.734;2023-11-22T05:00:04;94838.84;;;10.19;100.00
9521;BME280;4798;41.574;23.734;2023-11-22T05:02:34;94845.53;;;10.40;100.00
9521;BME280;4798;41.574;23.734;2023-11-22T05:05:04;94837.25;;;10.47;100.00
9521;BME280;4798;41.574;23.734;2023-11-22T05:07:32;94847.81;;;10.52;100.00
9521;BME280;4798;41.574;23.734;2023-11-22T05:10:01;94836.06;;;10.58;100.00
9521;BME280;4798;41.574;23.734;2023-11-22T05:12:30;94836.19;;;10.48;100.00
9521;BME280;4798;41.574;23.734;2023-11-22T05:14:59;94838.47;;;10.59;100.00
9521;BME280;4798;41.574;23.734;2023-11-22T05:17:29;94844.34;;;10.80;100.00
9521;BME280;4798;41.574;23.734;2023-11-22T05:19:59;94854.53;;;10.68;100.00
9521;BME280;4798;41.574;23.734;2023-11-22T05:22:28;94855.28;;;10.73;100.00
9521;BME280;4798;41.574;23.734;2023-11-22T05:24:56;94855.63;;;10.67;100.00
9521;BME280;4798;41.574;23.734;2023-11-22T05:27:25;94860.78;;;10.53;100.00
9521;BME280;4798;41.574;23.734;2023-11-22T05:29:55;94869.03;;;10.75;100.00
9521;BME280;4798;41.574;23.734;2023-11-22T05:32:23;94870.31;;;10.78;100.00
9521;BME280;4798;41.574;23.734;2023-11-22T05:34:53;94872.94;;;10.83;100.00
9521;BME280;4798;41.574;23.734;2023-11-22T05:37:21;94865.41;;;10.95;100.00
9521;BME280;4798;41.574;23.734;2023-11-22T05:39:51;94877.72;;;10.81;100.00
9521;BME280;4798;41.574;23.734;2023-11-22T05:42:20;94886.06;;;10.93;100.00
9521;BME280;4798;41.574;23.734;2023-11-22T05:44:48;94883.66;;;10.97;100.00
9521;BME280;4798;41.574;23.734;2023-11-22T05:47:17;94878.66;;;10.95;100.00
9521;BME280;4798;41.574;23.734;2023-11-22T05:49:46;94876.38;;;10.83;100.00
9521;BME280;4798;41.574;23.734;2023-11-22T05:52:16;94906.22;;;10.94;100.00
9521;BME280;4798;41.574;23.734;2023-11-22T05:54:45;94895.72;;;10.84;100.00
9521;BME280;4798;41.574;23.734;2023-11-22T05:57:14;94911.69;;;10.79;100.00
9521;BME280;4798;41.574;23.734;2023-11-22T05:59:42;94898.72;;;10.77;100.00
9521;BME280;4798;41.574;23.734;2023-11-22T06:02:11;94906.16;;;10.47;100.00
9521;BME280;4798;41.574;23.734;2023-11-22T06:04:40;94909.19;;;10.30;100.00
9521;BME280;4798;41.574;23.734;2023-11-22T06:07:09;94920.31;;;10.32;100.00
9521;BME280;4798;41.574;23.734;2023-11-22T06:09:39;94936.78;;;10.24;100.00
9521;BME280;4798;41.574;23.734;2023-11-22T06:12:07;94928.56;;;10.26;100.00
9521;BME280;4798;41.574;23.734;2023-11-22T06:14:35;94930.06;;;10.37;100.00
9521;BME280;4798;41.574;23.734;2023-11-22T06:17:04;94936.38;;;10.41;100.00
9521;BME280;4798;41.574;23.734;2023-11-22T06:19:33;94932.19;;;10.68;100.00
9521;BME280;4798;41.574;23.734;2023-11-22T06:22:01;94940.50;;;10.57;100.00
9521;BME280;4798;41.574;23.734;2023-11-22T06:24:30;94945.47;;;10.63;100.00
9521;BME280;4798;41.574;23.734;2023-11-22T06:27:01;94947.25;;;10.73;100.00
9521;BME280;4798;41.574;23.734;2023-11-22T06:29:30;94942.38;;;10.85;100.00
9521;BME280;4798;41.574;23.734;2023-11-22T06:31:59;94960.41;;;10.83;100.00
9521;BME280;4798;41.574;23.734;2023-11-22T06:34:27;94954.91;;;11.03;100.00
9521;BME280;4798;41.574;23.734;2023-11-22T06:36:56;94956.50;;;11.04;100.00
9521;BME280;4798;41.574;23.734;2023-11-22T06:39:24;94957.47;;;11.13;100.00
9521;BME280;4798;41.574;23.734;2023-11-22T06:41:53;94957.41;;;11.18;100.00
9521;BME280;4798;41.574;23.734;2023-11-22T06:44:24;94956.91;;;11.16;100.00
9521;BME280;4798;41.574;23.734;2023-11-22T06:46:52;94962.06;;;11.31;100.00
9521;BME280;4798;41.574;23.734;2023-11-22T06:49:21;94958.16;;;11.24;100.00
9521;BME280;4798;41.574;23.734;2023-11-22T06:51:49;94959.00;;;11.19;100.00
9521;BME280;4798;41.574;23.734;2023-11-22T06:54:19;94950.69;;;11.26;100.00
9521;BME280;4798;41.574;23.734;2023-11-22T06:56:48;94957.84;;;11.30;100.00
9521;BME280;4798;41.574;23.734;2023-11-22T06:59:17;94968.38;;;11.12;100.00
9521;BME280;4798;41.574;23.734;2023-11-22T07:01:47;94954.50;;;11.20;100.00
9521;BME280;4798;41.574;23.734;2023-11-22T07:04:16;94961.84;;;11.28;100.00
9521;BME280;4798;41.574;23.734;2023-11-22T07:06:44;94962.59;;;11.28;100.00
9521;BME280;4798;41.574;23.734;2023-11-22T07:09:13;94963.97;;;11.26;100.00
9521;BME280;4798;41.574;23.734;2023-11-22T07:11:41;94965.91;;;11.20;100.00
9521;BME280;4798;41.574;23.734;2023-11-22T07:14:11;94968.84;;;10.90;100.00
9521;BME280;4798;41.574;23.734;2023-11-22T07:16:41;94965.16;;;10.57;100.00
9521;BME280;4798;41.574;23.734;2023-11-22T07:19:11;94979.53;;;9.97;100.00
9521;BME280;4798;41.574;23.734;2023-11-22T07:21:39;94974.28;;;9.92;100.00
9521;BME280;4798;41.574;23.734;2023-11-22T07:24:08;94967.63;;;10.00;100.00
9521;BME280;4798;41.574;23.734;2023-11-22T07:26:41;94972.97;;;9.90;100.00
9521;BME280;4798;41.574;23.734;2023-11-22T07:29:11;94973.13;;;10.08;100.00
9521;BME280;4798;41.574;23.734;2023-11-22T07:31:40;94977.56;;;10.23;100.00
9521;BME280;4798;41.574;23.734;2023-11-22T07:34:10;94981.84;;;10.53;100.00
9521;BME280;4798;41.574;23.734;2023-11-22T07:36:40;94968.78;;;10.66;100.00
9521;BME280;4798;41.574;23.734;2023-11-22T07:39:08;94976.97;;;10.70;100.00
9521;BME280;4798;41.574;23.734;2023-11-22T07:41:39;94979.41;;;10.95;100.00
9521;BME280;4798;41.574;23.734;2023-11-22T07:44:08;94925.28;;;10.72;100.00
9521;BME280;4798;41.574;23.734;2023-11-22T07:46:42;94972.41;;;11.04;100.00
9521;BME280;4798;41.574;23.734;2023-11-22T07:49:13;94973.81;;;10.97;100.00
9521;BME280;4798;41.574;23.734;2023-11-22T07:51:42;94975.03;;;11.09;100.00
9521;BME280;4798;41.574;23.734;2023-11-22T07:54:12;94970.78;;;11.08;100.00
9521;BME280;4798;41.574;23.734;2023-11-22T07:56:42;94970.16;;;11.16;100.00
9521;BME280;4798;41.574;23.734;2023-11-22T07:59:11;94977.31;;;11.16;100.00
9521;BME280;4798;41.574;23.734;2023-11-22T08:01:42;94983.72;;;11.15;100.00
9521;BME280;4798;41.574;23.734;2023-11-22T08:04:13;94979.97;;;10.92;100.00
9521;BME280;4798;41.574;23.734;2023-11-22T08:06:41;94972.13;;;10.77;100.00
9521;BME280;4798;41.574;23.734;2023-11-22T08:09:10;94967.63;;;10.77;100.00
9521;BME280;4798;41.574;23.734;2023-11-22T08:11:38;94977.53;;;10.96;100.00
9521;BME280;4798;41.574;23.734;2023-11-22T08:14:08;94969.41;;;10.87;100.00
9521;BME280;4798;41.574;23.734;2023-11-22T08:16:36;94980.59;;;10.79;100.00
9521;BME280;4798;41.574;23.734;2023-11-22T08:19:06;94971.00;;;10.83;100.00
9521;BME280;4798;41.574;23.734;2023-11-22T08:21:36;94967.50;;;10.93;100.00
9521;BME280;4798;41.574;23.734;2023-11-22T08:24:06;94970.59;;;11.00;100.00
9521;BME280;4798;41.574;23.734;2023-11-22T08:26:35;94968.81;;;10.95;100.00
9521;BME280;4798;41.574;23.734;2023-11-22T08:29:03;94971.75;;;10.60;100.00
9521;BME280;4798;41.574;23.734;2023-11-22T08:31:32;94972.22;;;10.67;100.00
9521;BME280;4798;41.574;23.734;2023-11-22T08:34:02;94982.63;;;10.58;100.00
9521;BME280;4798;41.574;23.734;2023-11-22T08:36:33;94982.56;;;10.97;100.00
9521;BME280;4798;41.574;23.734;2023-11-22T08:39:03;94989.13;;;10.71;100.00
9521;BME280;4798;41.574;23.734;2023-11-22T08:41:34;94992.22;;;10.83;100.00
9521;BME280;4798;41.574;23.734;2023-11-22T08:44:02;94993.16;;;10.97;100.00
9521;BME280;4798;41.574;23.734;2023-11-22T08:46:31;94950.84;;;10.87;100.00
9521;BME280;4798;41.574;23.734;2023-11-22T08:48:59;94989.72;;;10.97;100.00
9521;BME280;4798;41.574;23.734;2023-11-22T08:51:29;95000.66;;;11.19;100.00
9521;BME280;4798;41.574;23.734;2023-11-22T08:53:57;94998.75;;;11.24;100.00
9521;BME280;4798;41.574;23.734;2023-11-22T08:56:27;94994.75;;;11.51;100.00
9521;BME280;4798;41.574;23.734;2023-11-22T08:58:56;94998.09;;;11.61;100.00
9521;BME280;4798;41.574;23.734;2023-11-22T09:01:25;94989.91;;;11.58;100.00
9521;BME280;4798;41.574;23.734;2023-11-22T09:03:54;94995.16;;;11.63;100.00
9521;BME280;4798;41.574;23.734;2023-11-22T09:06:24;94993.13;;;11.55;100.00
9521;BME280;4798;41.574;23.734;2023-11-22T09:08:52;94986.84;;;11.45;100.00
9521;BME280;4798;41.574;23.734;2023-11-22T09:11:21;94990.16;;;11.56;100.00
9521;BME280;4798;41.574;23.734;2023-11-22T09:13:51;94987.22;;;11.34;100.00
9521;BME280;4798;41.574;23.734;2023-11-22T09:16:24;94995.53;;;11.27;100.00
9521;BME280;4798;41.574;23.734;2023-11-22T09:18:53;94993.78;;;11.41;100.00
9521;BME280;4798;41.574;23.734;2023-11-22T09:21:23;94993.78;;;11.41;100.00
9521;BME280;4798;41.574;23.734;2023-11-22T09:23:52;94985.81;;;11.41;100.00
9521;BME280;4798;41.574;23.734;2023-11-22T09:26:21;94982.00;;;11.53;100.00
9521;BME280;4798;41.574;23.734;2023-11-22T09:28:51;94985.88;;;11.60;100.00
9521;BME280;4798;41.574;23.734;2023-11-22T09:31:20;94984.09;;;11.79;100.00
9521;BME280;4798;41.574;23.734;2023-11-22T09:33:49;94972.09;;;11.82;100.00
9521;BME280;4798;41.574;23.734;2023-11-22T09:36:18;94982.59;;;11.92;100.00
9521;BME280;4798;41.574;23.734;2023-11-22T09:38:46;94989.56;;;11.88;100.00
9521;BME280;4798;41.574;23.734;2023-11-22T09:41:15;94984.56;;;12.05;100.00
9521;BME280;4798;41.574;23.734;2023-11-22T09:43:44;94950.16;;;11.76;100.00
9521;BME280;4798;41.574;23.734;2023-11-22T09:46:18;94978.44;;;11.86;100.00
9521;BME280;4798;41.574;23.734;2023-11-22T09:48:48;94928.06;;;11.57;100.00
9521;BME280;4798;41.574;23.734;2023-11-22T09:51:23;94985.22;;;12.16;100.00
9521;BME280;4798;41.574;23.734;2023-11-22T09:53:56;94971.44;;;12.14;100.00
9521;BME280;4798;41.574;23.734;2023-11-22T09:56:26;94912.31;;;11.66;100.00
9521;BME280;4798;41.574;23.734;2023-11-22T09:58:57;94967.19;;;12.13;100.00
9521;BME280;4798;41.574;23.734;2023-11-22T10:01:29;94976.88;;;12.22;100.00
9521;BME280;4798;41.574;23.734;2023-11-22T10:04:01;94971.63;;;12.54;100.00
9521;BME280;4798;41.574;23.734;2023-11-22T10:06:32;94975.78;;;12.60;100.00
9521;BME280;4798;41.574;23.734;2023-11-22T10:09:03;94972.16;;;12.70;100.00
9521;BME280;4798;41.574;23.734;2023-11-22T10:11:35;94961.84;;;12.68;100.00
9521;BME280;4798;41.574;23.734;2023-11-22T10:14:06;94972.25;;;12.65;100.00
9521;BME280;4798;41.574;23.734;2023-11-22T10:16:37;94973.03;;;12.65;100.00
9521;BME280;4798;41.574;23.734;2023-11-22T10:19:06;94942.88;;;12.56;100.00
9521;BME280;4798;41.574;23.734;2023-11-22T10:21:34;94961.81;;;12.87;100.00
9521;BME280;4798;41.574;23.734;2023-11-22T10:24:04;94960.06;;;12.77;100.00
9521;BME280;4798;41.574;23.734;2023-11-22T10:26:36;94960.00;;;12.83;100.00
9521;BME280;4798;41.574;23.734;2023-11-22T10:29:05;94956.81;;;12.67;100.00
9521;BME280;4798;41.574;23.734;2023-11-22T10:31:38;94955.31;;;12.42;100.00
9521;BME280;4798;41.574;23.734;2023-11-22T10:34:08;94887.28;;;12.09;100.00
9521;BME280;4798;41.574;23.734;2023-11-22T10:36:37;94949.34;;;12.83;100.00
9521;BME280;4798;41.574;23.734;2023-11-22T10:39:08;94949.06;;;13.16;100.00
9521;BME280;4798;41.574;23.734;2023-11-22T10:41:37;94946.63;;;13.20;100.00
9521;BME280;4798;41.574;23.734;2023-11-22T10:44:06;94954.50;;;13.25;100.00
9521;BME280;4798;41.574;23.734;2023-11-22T10:46:39;94881.81;;;12.97;100.00
9521;BME280;4798;41.574;23.734;2023-11-22T10:49:08;94952.28;;;13.46;100.00
9521;BME280;4798;41.574;23.734;2023-11-22T10:51:40;94949.41;;;13.42;100.00
9521;BME280;4798;41.574;23.734;2023-11-22T10:54:09;94952.25;;;13.32;100.00
9521;BME280;4798;41.574;23.734;2023-11-22T10:56:39;94962.22;;;13.40;100.00
9521;BME280;4798;41.574;23.734;2023-11-22T10:59:13;94954.59;;;13.33;100.00
9521;BME280;4798;41.574;23.734;2023-11-22T11:01:47;94952.66;;;13.53;100.00
9521;BME280;4798;41.574;23.734;2023-11-22T11:04:20;94947.81;;;13.41;100.00
9521;BME280;4798;41.574;23.734;2023-11-22T11:06:54;94903.28;;;13.01;100.00
9521;BME280;4798;41.574;23.734;2023-11-22T11:09:24;94961.63;;;13.43;100.00
9521;BME280;4798;41.574;23.734;2023-11-22T11:11:59;94951.84;;;13.52;100.00
9521;BME280;4798;41.574;23.734;2023-11-22T11:14:35;94948.03;;;13.58;100.00
9521;BME280;4798;41.574;23.734;2023-11-22T11:17:06;94942.88;;;13.75;100.00
9521;BME280;4798;41.574;23.734;2023-11-22T11:19:36;94946.13;;;13.72;100.00
9521;BME280;4798;41.574;23.734;2023-11-22T11:22:07;94935.28;;;13.69;100.00
9521;BME280;4798;41.574;23.734;2023-11-22T11:24:40;94934.88;;;13.75;100.00
9521;BME280;4798;41.574;23.734;2023-11-22T11:27:11;94932.59;;;13.82;100.00
9521;BME280;4798;41.574;23.734;2023-11-22T11:29:40;94922.84;;;13.78;100.00
9521;BME280;4798;41.574;23.734;2023-11-22T11:32:15;94889.63;;;13.21;100.00
9521;BME280;4798;41.574;23.734;2023-11-22T11:34:58;94932.22;;;13.62;100.00
9521;BME280;4798;41.574;23.734;2023-11-22T11:37:29;94924.44;;;13.65;100.00
9521;BME280;4798;41.574;23.734;2023-11-22T11:39:58;94929.06;;;13.73;100.00
9521;BME280;4798;41.574;23.734;2023-11-22T11:42:27;94920.66;;;13.80;100.00
9521;BME280;4798;41.574;23.734;2023-11-22T11:45:05;94868.03;;;13.63;100.00
9521;BME280;4798;41.574;23.734;2023-11-22T11:47:36;94906.56;;;14.15;100.00
9521;BME280;4798;41.574;23.734;2023-11-22T11:50:05;94911.59;;;14.17;100.00
9521;BME280;4798;41.574;23.734;2023-11-22T11:52:33;94916.31;;;14.33;100.00
9521;BME280;4798;41.574;23.734;2023-11-22T11:55:04;94912.59;;;14.56;100.00
9521;BME280;4798;41.574;23.734;2023-11-22T11:57:33;94908.44;;;14.73;100.00
9521;BME280;4798;41.574;23.734;2023-11-22T12:00:03;94899.81;;;14.76;100.00
9521;BME280;4798;41.574;23.734;2023-11-22T12:02:33;94909.50;;;14.94;100.00
9521;BME280;4798;41.574;23.734;2023-11-22T12:05:04;94915.66;;;14.72;100.00
9521;BME280;4798;41.574;23.734;2023-11-22T12:07:36;94908.66;;;15.15;100.00
9521;BME280;4798;41.574;23.734;2023-11-22T12:10:05;94912.06;;;15.38;100.00
9521;BME280;4798;41.574;23.734;2023-11-22T12:12:34;94906.69;;;15.30;100.00
9521;BME280;4798;41.574;23.734;2023-11-22T12:15:05;94923.38;;;15.35;100.00
9521;BME280;4798;41.574;23.734;2023-11-22T12:17:34;94917.84;;;15.32;100.00
9521;BME280;4798;41.574;23.734;2023-11-22T12:20:13;94924.00;;;15.01;100.00
9521;BME280;4798;41.574;23.734;2023-11-22T12:22:45;94928.97;;;14.94;100.00
9521;BME280;4798;41.574;23.734;2023-11-22T12:25:14;94930.41;;;15.00;100.00
9521;BME280;4798;41.574;23.734;2023-11-22T12:27:43;94916.47;;;15.03;100.00
9521;BME280;4798;41.574;23.734;2023-11-22T12:30:28;94924.84;;;14.88;100.00
9521;BME280;4798;41.574;23.734;2023-11-22T12:32:57;94925.72;;;15.06;100.00
9521;BME280;4798;41.574;23.734;2023-11-22T12:35:26;94934.84;;;15.05;100.00
9521;BME280;4798;41.574;23.734;2023-11-22T12:37:55;94930.53;;;14.95;100.00
9521;BME280;4798;41.574;23.734;2023-11-22T12:40:23;94931.66;;;14.94;100.00
9521;BME280;4798;41.574;23.734;2023-11-22T12:42:52;94932.31;;;14.78;100.00
9521;BME280;4798;41.574;23.734;2023-11-22T12:45:21;94924.69;;;14.62;100.00
9521;BME280;4798;41.574;23.734;2023-11-22T12:47:51;94862.56;;;14.40;100.00
9521;BME280;4798;41.574;23.734;2023-11-22T12:50:31;94942.22;;;15.08;100.00
9521;BME280;4798;41.574;23.734;2023-11-22T12:53:10;94947.31;;;14.87;100.00
9521;BME280;4798;41.574;23.734;2023-11-22T12:55:42;94937.00;;;14.72;100.00
9521;BME280;4798;41.574;23.734;2023-11-22T12:58:12;94939.16;;;14.48;100.00
9521;BME280;4798;41.574;23.734;2023-11-22T13:00:41;94935.06;;;14.42;100.00
9521;BME280;4798;41.574;23.734;2023-11-22T13:03:10;94935.53;;;14.66;100.00
9521;BME280;4798;41.574;23.734;2023-11-22T13:05:42;94946.25;;;14.97;100.00
9521;BME280;4798;41.574;23.734;2023-11-22T13:08:12;94945.00;;;14.94;100.00
9521;BME280;4798;41.574;23.734;2023-11-22T13:10:44;94953.84;;;14.81;100.00
9521;BME280;4798;41.574;23.734;2023-11-22T13:13:15;94935.94;;;15.04;100.00
9521;BME280;4798;41.574;23.734;2023-11-22T13:15:44;94952.50;;;15.23;100.00